sensor_id;sensor_type;location;lat;lon;timestamp;P1;durP1;ratioP1;P2;durP2;ratioP2
47513;SDS011;33951;51.988;5.910;2022-10-31T00:03:32;16.52;;;12.88;;
47513;SDS011;33951;51.988;5.910;2022-10-31T00:23:06;27.77;;;15.90;;
47513;SDS011;33951;51.988;5.910;2022-10-31T07:20:54;41.15;;;28.42;;
47513;SDS011;33951;51.988;5.910;2022-10-31T07:23:23;35.53;;;25.33;;
47513;SDS011;33951;51.988;5.910;2022-10-31T07:25:59;42.17;;;27.67;;
47513;SDS011;33951;51.988;5.910;2022-10-31T07:31:59;40.53;;;28.27;;
47513;SDS011;33951;51.988;5.910;2022-10-31T07:38:20;69.70;;;55.78;;
47513;SDS011;33951;51.988;5.910;2022-10-31T07:44:55;38.78;;;30.20;;
47513;SDS011;33951;51.988;5.910;2022-10-31T08:23:11;64.18;;;48.42;;
47513;SDS011;33951;51.988;5.910;2022-10-31T08:37:26;40.95;;;30.00;;
47513;SDS011;33951;51.988;5.910;2022-10-31T10:00:57;29.08;;;21.27;;
47513;SDS011;33951;51.988;5.910;2022-10-31T10:03:58;30.08;;;20.70;;
47513;SDS011;33951;51.988;5.910;2022-10-31T11:23:03;32.17;;;23.10;;
47513;SDS011;33951;51.988;5.910;2022-10-31T11:25:29;37.35;;;23.65;;
47513;SDS011;33951;51.988;5.910;2022-10-31T11:28:02;32.78;;;22.42;;
47513;SDS011;33951;51.988;5.910;2022-10-31T11:30:43;31.98;;;21.80;;
47513;SDS011;33951;51.988;5.910;2022-10-31T11:35:49;42.05;;;29.30;;
47513;SDS011;33951;51.988;5.910;2022-10-31T11:38:20;37.97;;;22.27;;
47513;SDS011;33951;51.988;5.910;2022-10-31T11:40:58;35.22;;;23.13;;
47513;SDS011;33951;51.988;5.910;2022-10-31T11:43:33;35.72;;;23.02;;
47513;SDS011;33951;51.988;5.910;2022-10-31T11:45:59;33.33;;;22.70;;
47513;SDS011;33951;51.988;5.910;2022-10-31T11:48:36;32.67;;;22.65;;
47513;SDS011;33951;51.988;5.910;2022-10-31T11:51:02;30.48;;;22.50;;
47513;SDS011;33951;51.988;5.910;2022-10-31T11:53:32;38.70;;;24.60;;
47513;SDS011;33951;51.988;5.910;2022-10-31T11:56:10;36.63;;;23.33;;
47513;SDS011;33951;51.988;5.910;2022-10-31T11:58:38;33.88;;;22.15;;
47513;SDS011;33951;51.988;5.910;2022-10-31T12:01:04;31.73;;;22.55;;
47513;SDS011;33951;51.988;5.910;2022-10-31T12:06:34;41.03;;;25.25;;
47513;SDS011;33951;51.988;5.910;2022-10-31T12:09:11;40.08;;;25.58;;
47513;SDS011;33951;51.988;5.910;2022-10-31T12:11:51;33.28;;;23.08;;
47513;SDS011;33951;51.988;5.910;2022-10-31T12:20:43;42.33;;;26.42;;
47513;SDS011;33951;51.988;5.910;2022-10-31T12:40:12;44.22;;;28.33;;
47513;SDS011;33951;51.988;5.910;2022-10-31T12:45:57;33.80;;;24.67;;
47513;SDS011;33951;51.988;5.910;2022-10-31T12:51:15;39.53;;;24.58;;
47513;SDS011;33951;51.988;5.910;2022-10-31T12:57:29;38.45;;;23.88;;
47513;SDS011;33951;51.988;5.910;2022-10-31T13:05:31;34.97;;;24.88;;
47513;SDS011;33951;51.988;5.910;2022-10-31T13:08:09;38.38;;;25.92;;
47513;SDS011;33951;51.988;5.910;2022-10-31T13:13:48;35.35;;;25.52;;
47513;SDS011;33951;51.988;5.910;2022-10-31T13:16:22;40.70;;;28.08;;
47513;SDS011;33951;51.988;5.910;2022-10-31T13:19:03;33.75;;;25.17;;
47513;SDS011;33951;51.988;5.910;2022-10-31T13:27:44;38.85;;;25.80;;
47513;SDS011;33951;51.988;5.910;2022-10-31T13:30:49;37.00;;;25.23;;
47513;SDS011;33951;51.988;5.910;2022-10-31T13:45:11;35.22;;;23.77;;
47513;SDS011;33951;51.988;5.910;2022-10-31T13:51:12;35.95;;;22.92;;
47513;SDS011;33951;51.988;5.910;2022-10-31T14:03:17;34.63;;;25.85;;
47513;SDS011;33951;51.988;5.910;2022-10-31T14:06:18;39.65;;;23.73;;
47513;SDS011;33951;51.988;5.910;2022-10-31T14:09:21;32.78;;;24.17;;
47513;SDS011;33951;51.988;5.910;2022-10-31T14:12:10;40.67;;;24.45;;
47513;SDS011;33951;51.988;5.910;2022-10-31T14:15:13;36.05;;;23.15;;
47513;SDS011;33951;51.988;5.910;2022-10-31T14:18:34;40.53;;;25.63;;
47513;SDS011;33951;51.988;5.910;2022-10-31T14:27:33;36.28;;;23.15;;
47513;SDS011;33951;51.988;5.910;2022-10-31T14:30:20;39.67;;;23.95;;
47513;SDS011;33951;51.988;5.910;2022-10-31T14:33:02;40.38;;;25.77;;
47513;SDS011;33951;51.988;5.910;2022-10-31T14:36:21;38.03;;;23.65;;
47513;SDS011;33951;51.988;5.910;2022-10-31T14:45:17;35.05;;;22.13;;
47513;SDS011;33951;51.988;5.910;2022-10-31T14:50:45;37.38;;;22.33;;
47513;SDS011;33951;51.988;5.910;2022-10-31T14:53:36;34.60;;;22.95;;
47513;SDS011;33951;51.988;5.910;2022-10-31T14:56:56;39.13;;;23.20;;
47513;SDS011;33951;51.988;5.910;2022-10-31T14:59:27;37.30;;;23.75;;
47513;SDS011;33951;51.988;5.910;2022-10-31T15:02:19;33.40;;;21.90;;
47513;SDS011;33951;51.988;5.910;2022-10-31T15:05:08;32.28;;;21.95;;
47513;SDS011;33951;51.988;5.910;2022-10-31T15:10:44;33.10;;;22.98;;
47513;SDS011;33951;51.988;5.910;2022-10-31T15:13:21;46.92;;;31.33;;
47513;SDS011;33951;51.988;5.910;2022-10-31T15:16:11;36.67;;;23.70;;
47513;SDS011;33951;51.988;5.910;2022-10-31T15:22:59;32.40;;;22.50;;
47513;SDS011;33951;51.988;5.910;2022-10-31T15:29:10;41.47;;;24.60;;
47513;SDS011;33951;51.988;5.910;2022-10-31T15:37:47;51.63;;;33.95;;
47513;SDS011;33951;51.988;5.910;2022-10-31T15:40:50;46.20;;;29.10;;
47513;SDS011;33951;51.988;5.910;2022-10-31T15:43:53;39.10;;;24.90;;
47513;SDS011;33951;51.988;5.910;2022-10-31T15:46:42;40.05;;;24.58;;
47513;SDS011;33951;51.988;5.910;2022-10-31T15:49:40;38.95;;;25.15;;
47513;SDS011;33951;51.988;5.910;2022-10-31T15:58:18;42.42;;;24.27;;
47513;SDS011;33951;51.988;5.910;2022-10-31T16:07:13;39.42;;;24.50;;
47513;SDS011;33951;51.988;5.910;2022-10-31T16:09:51;35.05;;;23.83;;
47513;SDS011;33951;51.988;5.910;2022-10-31T16:12:28;38.28;;;23.73;;
47513;SDS011;33951;51.988;5.910;2022-10-31T16:16:04;40.25;;;24.67;;
47513;SDS011;33951;51.988;5.910;2022-10-31T16:18:53;41.17;;;24.92;;
47513;SDS011;33951;51.988;5.910;2022-10-31T16:24:52;42.88;;;24.38;;
47513;SDS011;33951;51.988;5.910;2022-10-31T16:27:34;44.63;;;27.33;;
47513;SDS011;33951;51.988;5.910;2022-10-31T16:30:43;39.70;;;26.25;;
47513;SDS011;33951;51.988;5.910;2022-10-31T16:34:11;43.10;;;25.45;;
47513;SDS011;33951;51.988;5.910;2022-10-31T16:36:53;42.35;;;25.70;;
47513;SDS011;33951;51.988;5.910;2022-10-31T16:39:35;47.17;;;27.17;;
47513;SDS011;33951;51.988;5.910;2022-10-31T16:42:36;36.17;;;24.58;;
47513;SDS011;33951;51.988;5.910;2022-10-31T16:47:33;39.30;;;24.85;;
47513;SDS011;33951;51.988;5.910;2022-10-31T16:49:58;46.95;;;26.92;;
47513;SDS011;33951;51.988;5.910;2022-10-31T16:55:20;37.47;;;24.83;;
47513;SDS011;33951;51.988;5.910;2022-10-31T16:58:11;41.13;;;26.08;;
47513;SDS011;33951;51.988;5.910;2022-10-31T17:01:18;40.00;;;24.77;;
47513;SDS011;33951;51.988;5.910;2022-10-31T17:03:52;37.47;;;24.50;;
47513;SDS011;33951;51.988;5.910;2022-10-31T17:06:47;39.72;;;23.95;;
47513;SDS011;33951;51.988;5.910;2022-10-31T17:09:23;42.40;;;25.10;;
47513;SDS011;33951;51.988;5.910;2022-10-31T17:12:10;47.03;;;26.52;;
47513;SDS011;33951;51.988;5.910;2022-10-31T17:15:14;39.15;;;24.52;;
47513;SDS011;33951;51.988;5.910;2022-10-31T17:18:29;50.20;;;36.17;;
47513;SDS011;33951;51.988;5.910;2022-10-31T17:21:01;68.53;;;45.08;;
47513;SDS011;33951;51.988;5.910;2022-10-31T20:43:22;30.05;;;18.17;;
47513;SDS011;33951;51.988;5.910;2022-10-31T20:46:15;25.02;;;17.45;;
47513;SDS011;33951;51.988;5.910;2022-10-31T20:49:12;23.25;;;14.45;;
47513;SDS011;33951;51.988;5.910;2022-10-31T21:45:45;14.60;;;10.82;;
47513;SDS011;33951;51.988;5.910;2022-10-31T21:48:45;16.05;;;10.85;;
47513;SDS011;33951;51.988;5.910;2022-10-31T21:52:09;20.20;;;11.57;;
47513;SDS011;33951;51.988;5.910;2022-10-31T22:25:14;22.65;;;10.00;;
47513;SDS011;33951;51.988;5.910;2022-10-31T22:27:42;24.83;;;10.75;;
47513;SDS011;33951;51.988;5.910;2022-10-31T22:30:08;17.20;;;9.48;;
47513;SDS011;33951;51.988;5.910;2022-10-31T22:32:35;13.50;;;8.27;;
47513;SDS011;33951;51.988;5.910;2022-10-31T22:35:00;15.98;;;9.38;;
47513;SDS011;33951;51.988;5.910;2022-10-31T22:37:31;13.63;;;9.90;;
47513;SDS011;33951;51.988;5.910;2022-10-31T22:39:57;16.25;;;8.88;;
47513;SDS011;33951;51.988;5.910;2022-10-31T22:42:25;21.92;;;11.52;;
47513;SDS011;33951;51.988;5.910;2022-10-31T22:44:54;16.00;;;8.70;;
47513;SDS011;33951;51.988;5.910;2022-10-31T22:47:19;19.67;;;9.63;;
47513;SDS011;33951;51.988;5.910;2022-10-31T22:49:45;16.35;;;9.25;;
47513;SDS011;33951;51.988;5.910;2022-10-31T22:52:16;18.73;;;9.80;;
47513;SDS011;33951;51.988;5.910;2022-10-31T22:57:50;17.63;;;8.75;;
47513;SDS011;33951;51.988;5.910;2022-10-31T23:00:21;17.65;;;9.35;;
47513;SDS011;33951;51.988;5.910;2022-10-31T23:02:52;16.02;;;9.13;;
47513;SDS011;33951;51.988;5.910;2022-10-31T23:08:48;15.10;;;8.75;;
47513;SDS011;33951;51.988;5.910;2022-10-31T23:11:29;29.02;;;9.48;;
47513;SDS011;33951;51.988;5.910;2022-10-31T23:13:58;17.85;;;9.00;;
47513;SDS011;33951;51.988;5.910;2022-10-31T23:16:54;18.20;;;9.20;;
47513;SDS011;33951;51.988;5.910;2022-10-31T23:19:22;14.38;;;9.43;;
47513;SDS011;33951;51.988;5.910;2022-10-31T23:21:56;12.95;;;8.95;;
47513;SDS011;33951;51.988;5.910;2022-10-31T23:27:01;19.50;;;10.00;;
47513;SDS011;33951;51.988;5.910;2022-10-31T23:29:57;18.25;;;9.43;;
47513;SDS011;33951;51.988;5.910;2022-10-31T23:32:28;15.17;;;8.20;;
47513;SDS011;33951;51.988;5.910;2022-10-31T23:35:04;18.00;;;8.85;;
47513;SDS011;33951;51.988;5.910;2022-10-31T23:37:40;15.27;;;8.82;;
47513;SDS011;33951;51.988;5.910;2022-10-31T23:40:06;16.98;;;9.65;;
47513;SDS011;33951;51.988;5.910;2022-10-31T23:42:45;15.50;;;9.43;;
47513;SDS011;33951;51.988;5.910;2022-10-31T23:45:18;17.42;;;8.55;;
47513;SDS011;33951;51.988;5.910;2022-10-31T23:47:51;13.38;;;7.65;;
47513;SDS011;33951;51.988;5.910;2022-10-31T23:50:17;15.05;;;7.47;;
47513;SDS011;33951;51.988;5.910;2022-10-31T23:52:46;16.48;;;8.20;;
47513;SDS011;33951;51.988;5.910;2022-10-31T23:55:35;17.05;;;7.78;;
47513;SDS011;33951;51.988;5.910;2022-10-31T23:58:30;13.63;;;7.28;;
